Time;durP1;ratioP1;P1;durP2;ratioP2;P2;SDS_P1;SDS_P2;PMS_P1;PMS_P2;Temp;Humidity;BMP_temperature;BMP_pressure;BME280_temperature;BME280_humidity;BME280_pressure;Samples;Min_cycle;Max_cycle;Signal;HPM_P1;HPM_P2
2022/10/03 00:01:43;;;;;;;14.30;10.63;;;12.90;89.70;;;;;;4971707;28;20462;-87
2022/10/03 00:04:40;;;;;;;12.90;10.07;;;12.90;89.40;;;;;;4951393;28;20831;-87
2022/10/03 00:07:16;;;;;;;14.37;9.93;;;12.80;89.20;;;;;;4954836;28;20861;-87
2022/10/03 00:10:04;;;;;;;12.37;8.67;;;12.80;89.40;;;;;;4970774;28;20516;-88
2022/10/03 00:12:57;;;;;;;15.50;9.57;;;12.70;89.30;;;;;;4968440;28;20524;-87
2022/10/03 00:15:30;;;;;;;15.50;9.57;;;12.60;89.80;;;;;;4967257;28;20463;-87
2022/10/03 00:18:12;;;;;;;16.60;9.50;;;12.60;89.80;;;;;;4953869;28;21034;-87
2022/10/03 00:21:06;;;;;;;14.80;9.47;;;12.60;89.80;;;;;;4970723;28;21336;-87
2022/10/03 00:23:48;;;;;;;11.77;8.63;;;12.60;89.80;;;;;;4973493;28;20505;-88
2022/10/03 00:26:29;;;;;;;15.80;10.20;;;12.50;89.80;;;;;;4955366;28;20537;-87
2022/10/03 00:29:50;;;;;;;12.80;9.63;;;12.40;89.80;;;;;;4971885;28;20544;-87
2022/10/03 00:32:35;;;;;;;13.30;9.53;;;12.40;89.80;;;;;;4926822;29;20894;-87
2022/10/03 00:35:07;;;;;;;14.27;10.40;;;12.40;89.80;;;;;;4948027;28;20960;-87
2022/10/03 00:37:55;;;;;;;17.40;9.60;;;12.40;89.80;;;;;;4957423;28;20516;-87
2022/10/03 00:40:57;;;;;;;15.03;10.20;;;12.50;89.80;;;;;;4971672;28;20462;-87
2022/10/03 00:43:42;;;;;;;11.97;9.33;;;12.50;89.40;;;;;;4971952;28;20500;-87
2022/10/03 00:46:27;;;;;;;11.50;8.40;;;12.40;89.50;;;;;;4948616;28;20502;-87
2022/10/03 00:49:10;;;;;;;12.87;9.40;;;12.40;89.30;;;;;;4954753;28;20521;-87
2022/10/03 00:51:50;;;;;;;11.13;8.77;;;12.40;88.90;;;;;;4950092;28;20462;-87
2022/10/03 00:54:57;;;;;;;16.77;10.97;;;12.40;88.90;;;;;;4970355;28;20450;-87
2022/10/03 00:57:58;;;;;;;14.53;10.07;;;12.30;89.40;;;;;;4969674;28;20470;-87
2022/10/03 01:00:30;;;;;;;18.53;9.80;;;12.30;89.60;;;;;;4951492;28;20471;-87
2022/10/03 01:03:06;;;;;;;20.57;10.60;;;12.20;89.80;;;;;;4953085;28;20494;-87
2022/10/03 01:06:16;;;;;;;16.33;11.10;;;12.20;89.80;;;;;;4971126;28;20505;-87
2022/10/03 01:09:15;;;;;;;16.53;10.00;;;12.20;89.80;;;;;;4951274;28;20462;-87
2022/10/03 01:12:01;;;;;;;14.23;10.07;;;12.10;89.80;;;;;;4922602;28;20462;-88
2022/10/03 01:14:50;;;;;;;16.10;11.30;;;12.00;89.80;;;;;;4954649;28;20470;-87
2022/10/03 01:17:52;;;;;;;15.07;10.27;;;12.10;89.80;;;;;;4968565;28;20486;-87
2022/10/03 01:20:31;;;;;;;14.93;10.00;;;12.00;89.80;;;;;;4975205;28;20960;-87
2022/10/03 01:23:01;;;;;;;15.77;10.63;;;12.10;89.80;;;;;;4956361;28;20516;-87
2022/10/03 01:26:05;;;;;;;14.20;8.93;;;12.10;89.80;;;;;;4967534;28;21321;-88
2022/10/03 01:31:54;;;;;;;15.43;9.70;;;12.00;89.80;;;;;;4972510;28;20466;-87
2022/10/03 01:34:30;;;;;;;14.40;10.17;;;11.90;89.80;;;;;;4948547;28;20490;-88
2022/10/03 01:37:04;;;;;;;15.87;10.07;;;11.90;89.80;;;;;;4957639;28;20529;-87
2022/10/03 01:39:48;;;;;;;16.50;9.77;;;12.00;89.80;;;;;;4954163;28;20898;-88
2022/10/03 01:42:33;;;;;;;18.47;9.23;;;12.00;89.80;;;;;;4953040;28;20537;-88
2022/10/03 01:45:22;;;;;;;13.40;9.93;;;12.00;89.80;;;;;;4955032;28;20478;-88
2022/10/03 01:47:57;;;;;;;12.77;9.47;;;12.00;89.80;;;;;;4970415;28;20470;-88
2022/10/03 01:50:55;;;;;;;12.70;9.70;;;12.00;89.80;;;;;;4971284;28;20462;-88
2022/10/03 01:53:41;;;;;;;17.70;9.20;;;12.00;89.80;;;;;;4954616;28;20516;-88
2022/10/03 01:56:31;;;;;;;18.77;9.40;;;11.90;89.80;;;;;;4969689;28;20467;-87
2022/10/03 01:59:06;;;;;;;15.70;10.00;;;11.90;89.80;;;;;;4950890;28;20471;-87
2022/10/03 02:01:51;;;;;;;15.30;11.10;;;11.80;89.80;;;;;;4968839;28;20509;-87
2022/10/03 02:04:46;;;;;;;12.07;9.77;;;11.90;89.80;;;;;;4967128;28;20975;-87
2022/10/03 02:07:44;;;;;;;12.87;9.53;;;11.90;89.80;;;;;;4953211;28;20553;-88
2022/10/03 02:10:20;;;;;;;15.67;10.37;;;11.90;89.80;;;;;;4951269;28;20462;-87
2022/10/03 02:13:17;;;;;;;13.30;9.67;;;11.90;89.80;;;;;;4953433;28;20462;-87
2022/10/03 02:16:09;;;;;;;17.00;9.80;;;11.80;89.80;;;;;;4929218;28;20952;-87
2022/10/03 02:18:47;;;;;;;16.50;10.10;;;11.80;89.80;;;;;;4969877;28;21321;-88
2022/10/03 02:21:19;;;;;;;13.80;9.87;;;11.80;89.80;;;;;;4969454;28;20469;-88
2022/10/03 02:23:48;;;;;;;16.53;9.73;;;11.80;89.80;;;;;;4970699;28;20964;-88
2022/10/03 02:27:03;;;;;;;14.70;10.80;;;11.80;89.80;;;;;;4950490;28;21319;-88
2022/10/03 02:30:19;;;;;;;15.73;10.73;;;11.70;89.80;;;;;;4950457;28;20493;-88
2022/10/03 02:33:16;;;;;;;13.80;10.73;;;11.60;89.80;;;;;;4948394;28;20528;-88
2022/10/03 02:36:06;;;;;;;16.60;11.97;;;11.60;89.80;;;;;;4950965;28;20975;-88
2022/10/03 02:38:41;;;;;;;15.60;10.90;;;11.50;89.80;;;;;;4970170;28;20466;-88
2022/10/03 02:41:21;;;;;;;13.70;9.97;;;11.50;89.80;;;;;;4954379;28;20461;-88
2022/10/03 02:44:03;;;;;;;14.17;9.73;;;11.60;89.80;;;;;;4967625;28;20461;-88
2022/10/03 02:46:45;;;;;;;12.83;8.67;;;11.60;89.80;;;;;;4952455;28;20489;-88
2022/10/03 02:49:49;;;;;;;17.53;10.17;;;11.60;89.30;;;;;;4952110;28;20449;-88
2022/10/03 02:52:29;;;;;;;23.30;11.57;;;11.60;89.10;;;;;;4974920;28;20893;-88
2022/10/03 02:55:35;;;;;;;16.60;9.80;;;11.50;89.60;;;;;;4969625;28;20443;-88
2022/10/03 02:58:29;;;;;;;14.77;10.53;;;11.40;89.40;;;;;;4965647;28;20473;-88
2022/10/03 03:01:35;;;;;;;17.37;8.67;;;11.50;89.70;;;;;;4955686;28;20462;-88
2022/10/03 03:04:29;;;;;;;13.80;9.07;;;11.40;89.50;;;;;;4951304;28;20473;-88
2022/10/03 03:07:37;;;;;;;18.40;11.17;;;11.40;89.50;;;;;;4967754;28;20536;-88
2022/10/03 03:10:26;;;;;;;12.20;9.23;;;11.40;89.50;;;;;;4951302;28;21018;-88
2022/10/03 03:13:07;;;;;;;12.40;9.20;;;11.40;89.40;;;;;;4953263;28;20458;-88
2022/10/03 03:15:52;;;;;;;13.50;10.07;;;11.40;88.90;;;;;;4968320;28;20454;-88
2022/10/03 03:18:33;;;;;;;14.00;9.43;;;11.40;89.10;;;;;;4964837;28;20483;-88
2022/10/03 03:21:00;;;;;;;13.73;9.07;;;11.40;88.70;;;;;;4967765;28;20524;-88
2022/10/03 03:23:27;;;;;;;16.10;9.93;;;11.40;88.30;;;;;;4951441;28;20960;-88
2022/10/03 03:26:19;;;;;;;11.57;8.20;;;11.40;88.60;;;;;;4954336;28;20835;-88
2022/10/03 03:29:05;;;;;;;14.23;8.60;;;11.30;88.90;;;;;;4969465;28;20462;-88
2022/10/03 03:32:03;;;;;;;13.87;8.97;;;11.20;89.20;;;;;;4970411;28;20486;-88
2022/10/03 03:34:58;;;;;;;14.33;8.40;;;11.20;89.30;;;;;;4972252;28;20498;-88
2022/10/03 03:37:30;;;;;;;14.70;9.07;;;11.20;89.00;;;;;;4959059;28;20470;-88
2022/10/03 03:40:28;;;;;;;14.53;8.90;;;11.20;88.50;;;;;;4959359;28;20517;-88
2022/10/03 03:43:07;;;;;;;13.80;8.90;;;11.30;88.60;;;;;;4955588;28;21002;-88
2022/10/03 03:45:44;;;;;;;12.97;9.27;;;11.30;88.90;;;;;;4955368;28;20955;-88
2022/10/03 03:48:36;;;;;;;12.80;8.33;;;11.30;89.00;;;;;;4974091;28;21376;-88
2022/10/03 03:51:21;;;;;;;17.13;9.63;;;11.20;89.50;;;;;;4954060;28;20532;-88
2022/10/03 03:53:56;;;;;;;19.57;10.27;;;11.20;89.60;;;;;;4975386;28;20489;-88
2022/10/03 03:56:26;;;;;;;16.90;10.30;;;11.10;89.80;;;;;;4972996;28;20462;-89
2022/10/03 03:59:12;;;;;;;16.47;9.87;;;11.00;89.80;;;;;;4971566;28;20520;-88
2022/10/03 04:01:48;;;;;;;16.50;9.70;;;11.00;89.80;;;;;;4955757;28;20453;-89
2022/10/03 04:04:35;;;;;;;18.87;11.53;;;11.00;89.80;;;;;;4956372;28;21180;-88
2022/10/03 04:07:14;;;;;;;12.37;9.77;;;11.00;89.80;;;;;;4953709;28;20478;-88
2022/10/03 04:09:50;;;;;;;13.57;9.10;;;11.10;89.80;;;;;;4971083;28;20486;-88
2022/10/03 04:12:36;;;;;;;19.70;9.40;;;11.10;89.80;;;;;;4956194;28;20463;-88
2022/10/03 04:15:43;;;;;;;15.27;11.00;;;11.00;89.80;;;;;;4972186;28;20543;-88
2022/10/03 04:21:50;;;;;;;17.73;10.70;;;10.90;89.80;;;;;;4966955;28;20470;-89
2022/10/03 04:24:42;;;;;;;14.00;10.17;;;11.00;89.80;;;;;;4955098;28;20462;-88
2022/10/03 04:27:24;;;;;;;14.10;9.90;;;11.10;89.80;;;;;;4967890;28;20489;-88
2022/10/03 04:30:03;;;;;;;17.73;10.70;;;10.90;89.80;;;;;;4954883;28;20458;-89
2022/10/03 04:32:33;;;;;;;14.53;9.50;;;10.80;89.80;;;;;;4972685;28;20987;-88
2022/10/03 04:35:21;;;;;;;15.83;10.37;;;10.80;89.80;;;;;;4953604;28;20454;-88
2022/10/03 04:38:11;;;;;;;17.50;10.20;;;10.80;89.80;;;;;;4953940;28;20517;-88
2022/10/03 04:41:04;;;;;;;20.00;11.00;;;10.90;89.80;;;;;;4970058;28;20462;-88
2022/10/03 04:43:42;;;;;;;17.70;11.10;;;10.90;89.80;;;;;;4972605;28;20502;-88
2022/10/03 04:46:32;;;;;;;20.57;11.50;;;10.90;89.80;;;;;;4954648;28;20513;-88
2022/10/03 04:49:20;;;;;;;16.33;11.33;;;10.80;89.80;;;;;;4954309;28;20505;-88
2022/10/03 04:51:57;;;;;;;16.37;11.37;;;11.00;89.80;;;;;;4955552;28;20438;-88
2022/10/03 04:55:16;;;;;;;18.57;12.30;;;11.10;89.80;;;;;;4970995;28;20868;-88
2022/10/03 04:57:58;;;;;;;15.40;11.50;;;11.10;89.80;;;;;;4923916;28;20549;-88
2022/10/03 05:00:45;;;;;;;15.17;10.70;;;11.20;89.80;;;;;;4954508;28;20532;-88
2022/10/03 05:03:31;;;;;;;16.87;11.33;;;11.10;89.80;;;;;;4954564;28;20472;-88
2022/10/03 05:06:30;;;;;;;26.10;11.87;;;11.20;89.80;;;;;;4954533;28;20470;-88
2022/10/03 05:09:22;;;;;;;22.67;11.97;;;11.20;89.80;;;;;;4951489;28;20524;-89
2022/10/03 05:12:13;;;;;;;17.03;10.90;;;11.20;89.80;;;;;;4954637;28;20497;-88
2022/10/03 05:14:52;;;;;;;17.43;11.43;;;11.20;89.80;;;;;;4970630;28;20485;-88
2022/10/03 05:17:22;;;;;;;20.50;12.37;;;11.10;89.80;;;;;;4953280;28;20975;-88
2022/10/03 05:20:22;;;;;;;16.47;11.23;;;11.10;89.80;;;;;;4953140;28;20517;-88
2022/10/03 05:23:18;;;;;;;21.10;12.07;;;11.10;89.80;;;;;;4933047;28;20912;-88
2022/10/03 05:26:13;;;;;;;21.10;11.90;;;11.20;89.80;;;;;;4957840;28;20502;-88
2022/10/03 05:29:38;;;;;;;17.00;10.97;;;11.20;89.80;;;;;;4954118;28;20999;-88
2022/10/03 05:32:24;;;;;;;22.20;12.20;;;11.30;89.80;;;;;;4952234;28;20558;-88
2022/10/03 05:35:29;;;;;;;18.97;12.53;;;11.40;89.80;;;;;;4969206;28;20462;-88
2022/10/03 05:38:16;;;;;;;19.33;11.50;;;11.40;89.80;;;;;;4895340;29;20516;-88
2022/10/03 05:40:58;;;;;;;18.27;13.00;;;11.30;89.80;;;;;;4917055;29;21470;-88
2022/10/03 05:43:56;;;;;;;14.83;10.90;;;11.40;89.80;;;;;;4934803;28;20801;-88
2022/10/03 05:47:01;;;;;;;18.37;12.00;;;11.40;89.80;;;;;;4971125;28;20474;-88
2022/10/03 05:50:05;;;;;;;19.57;10.13;;;11.40;89.80;;;;;;4968835;28;20509;-88
2022/10/03 05:52:52;;;;;;;18.87;13.80;;;11.50;89.80;;;;;;4969217;28;20552;-88
2022/10/03 05:55:57;;;;;;;18.20;11.83;;;11.50;89.80;;;;;;4950620;28;20540;-88
2022/10/03 05:58:42;;;;;;;23.90;12.13;;;11.50;89.80;;;;;;4871611;29;20538;-88
2022/10/03 06:01:34;;;;;;;22.90;12.13;;;11.50;89.80;;;;;;4855306;29;20511;-89
2022/10/03 06:04:20;;;;;;;22.00;12.33;;;11.50;89.80;;;;;;4948810;28;20490;-88
2022/10/03 06:07:11;;;;;;;22.07;12.60;;;11.50;89.80;;;;;;4953855;28;20568;-88
2022/10/03 06:10:04;;;;;;;22.47;14.27;;;11.50;89.80;;;;;;4976592;28;21036;-88
2022/10/03 06:12:53;;;;;;;21.87;13.70;;;11.50;89.80;;;;;;4969918;28;20498;-88
2022/10/03 06:15:53;;;;;;;22.23;13.53;;;11.50;89.80;;;;;;4951977;28;20508;-88
2022/10/03 06:18:30;;;;;;;24.33;14.20;;;11.60;89.80;;;;;;4953949;28;20486;-88
2022/10/03 06:21:15;;;;;;;21.13;13.10;;;11.60;89.80;;;;;;4958119;28;20545;-88
2022/10/03 06:24:07;;;;;;;21.07;12.60;;;11.60;89.80;;;;;;4952947;28;20458;-88
2022/10/03 06:26:35;;;;;;;21.83;13.33;;;11.60;89.80;;;;;;4952851;28;20462;-88
2022/10/03 06:29:27;;;;;;;16.97;11.63;;;11.70;89.80;;;;;;4976271;28;20556;-88
2022/10/03 06:32:02;;;;;;;17.50;11.87;;;11.70;89.80;;;;;;4971939;28;21482;-88
2022/10/03 06:34:49;;;;;;;16.50;12.23;;;11.60;89.80;;;;;;4951122;28;20983;-88
2022/10/03 06:37:47;;;;;;;23.00;12.43;;;11.70;89.80;;;;;;4949201;28;20571;-88
2022/10/03 06:40:39;;;;;;;20.17;11.50;;;11.70;89.80;;;;;;4970133;28;20512;-88
2022/10/03 06:43:29;;;;;;;16.67;10.57;;;11.80;89.80;;;;;;4974006;28;20462;-88
2022/10/03 06:46:24;;;;;;;18.07;11.03;;;11.80;89.80;;;;;;4957068;28;20478;-88
2022/10/03 06:49:19;;;;;;;18.67;9.83;;;11.80;89.80;;;;;;4952442;28;20544;-88
2022/10/03 06:51:52;;;;;;;18.90;10.77;;;11.80;89.80;;;;;;4953893;28;21074;-88
2022/10/03 06:54:55;;;;;;;17.53;10.10;;;11.90;89.80;;;;;;4953042;28;20493;-88
2022/10/03 06:57:55;;;;;;;15.67;10.80;;;11.80;89.80;;;;;;4970608;28;20516;-88
2022/10/03 07:01:00;;;;;;;21.03;10.27;;;11.80;89.80;;;;;;4973296;28;20509;-88
2022/10/03 07:03:39;;;;;;;16.27;9.80;;;11.90;89.80;;;;;;4951196;28;20466;-88
2022/10/03 07:06:32;;;;;;;14.50;10.10;;;11.90;89.80;;;;;;4969738;28;20565;-88
2022/10/03 07:09:36;;;;;;;13.37;8.70;;;12.00;89.80;;;;;;4972278;28;20470;-88
2022/10/03 07:12:16;;;;;;;16.97;9.43;;;12.00;89.80;;;;;;4955163;28;20898;-88
2022/10/03 07:15:08;;;;;;;14.47;9.80;;;12.00;89.80;;;;;;4970734;28;20466;-88
2022/10/03 07:17:53;;;;;;;15.17;8.97;;;12.10;89.80;;;;;;4973735;28;20544;-88
2022/10/03 07:20:32;;;;;;;16.23;10.43;;;12.10;89.80;;;;;;4953453;28;20971;-88
2022/10/03 07:23:07;;;;;;;20.20;10.13;;;12.10;89.80;;;;;;4972171;28;20520;-87
2022/10/03 07:26:02;;;;;;;17.60;11.07;;;12.20;89.80;;;;;;4970655;28;20588;-88
2022/10/03 07:29:08;;;;;;;20.77;12.60;;;12.20;89.80;;;;;;4973540;28;20520;-88
2022/10/03 07:31:59;;;;;;;25.90;12.73;;;12.20;89.80;;;;;;4952893;28;20465;-88
2022/10/03 07:34:57;;;;;;;17.60;10.60;;;12.20;89.80;;;;;;4951924;28;20458;-88
2022/10/03 07:40:38;;;;;;;14.50;9.23;;;12.30;89.80;;;;;;4977669;28;20568;-88
2022/10/03 07:43:50;;;;;;;11.57;8.23;;;12.40;89.80;;;;;;4950527;28;20450;-88
2022/10/03 07:46:41;;;;;;;17.83;8.33;;;12.30;89.80;;;;;;4967627;28;20528;-88
2022/10/03 07:49:44;;;;;;;14.30;8.13;;;12.30;89.80;;;;;;4974115;28;20843;-88
2022/10/03 07:52:45;;;;;;;14.30;8.20;;;12.40;89.80;;;;;;4955826;28;20465;-88
2022/10/03 07:55:21;;;;;;;14.53;8.07;;;12.40;89.80;;;;;;4958024;28;20513;-88
2022/10/03 07:58:02;;;;;;;12.00;7.57;;;12.50;89.80;;;;;;4954966;28;20512;-88
2022/10/03 08:01:07;;;;;;;12.30;7.23;;;12.50;89.80;;;;;;4957374;28;20470;-88
2022/10/03 08:04:04;;;;;;;14.07;6.23;;;12.60;89.80;;;;;;4972461;28;20532;-88
2022/10/03 08:06:44;;;;;;;12.67;7.43;;;12.60;89.80;;;;;;4952167;28;20470;-88
2022/10/03 08:09:30;;;;;;;10.83;6.03;;;12.70;89.80;;;;;;4955866;28;20467;-88
2022/10/03 08:12:34;;;;;;;15.30;7.00;;;12.70;89.80;;;;;;4955113;28;21029;-88
2022/10/03 08:15:09;;;;;;;16.03;7.30;;;12.70;89.80;;;;;;4952959;28;20949;-88
2022/10/03 08:18:16;;;;;;;11.30;6.40;;;12.80;89.80;;;;;;4973125;28;20481;-88
2022/10/03 08:21:00;;;;;;;11.07;6.60;;;12.80;89.80;;;;;;4949950;28;21213;-87
2022/10/03 08:23:45;;;;;;;9.27;5.90;;;12.90;89.80;;;;;;4956296;28;20507;-88
2022/10/03 08:26:42;;;;;;;9.47;6.17;;;12.90;89.80;;;;;;4955518;28;20545;-88
2022/10/03 08:29:38;;;;;;;9.50;7.77;;;12.90;89.80;;;;;;4942258;28;20578;-88
2022/10/03 08:32:27;;;;;;;15.10;6.83;;;12.90;89.80;;;;;;4954600;28;20566;-88
2022/10/03 08:35:28;;;;;;;11.03;6.30;;;13.00;89.80;;;;;;4974943;28;20478;-88
2022/10/03 08:38:11;;;;;;;15.00;6.70;;;13.10;89.80;;;;;;4954461;28;20462;-87
2022/10/03 08:41:18;;;;;;;11.73;6.67;;;13.10;89.80;;;;;;4975875;28;20458;-88
2022/10/03 08:44:06;;;;;;;14.40;8.57;;;13.20;89.80;;;;;;4971239;28;20489;-88
2022/10/03 08:46:46;;;;;;;11.97;7.40;;;13.20;89.80;;;;;;4972303;28;20498;-88
2022/10/03 08:49:51;;;;;;;10.20;7.00;;;13.20;89.80;;;;;;4971867;28;20498;-88
2022/10/03 08:52:27;;;;;;;15.93;9.30;;;13.20;89.80;;;;;;4953527;28;20501;-88
2022/10/03 08:55:18;;;;;;;12.13;7.00;;;13.20;89.80;;;;;;4975219;28;20466;-88
2022/10/03 08:58:03;;;;;;;10.23;7.63;;;13.30;89.80;;;;;;4967393;28;20481;-88
2022/10/03 09:00:57;;;;;;;12.90;8.10;;;13.30;89.80;;;;;;4953430;28;20549;-88
2022/10/03 09:03:49;;;;;;;24.50;8.50;;;13.40;89.80;;;;;;4970329;28;20904;-88
2022/10/03 09:06:23;;;;;;;16.20;8.13;;;13.40;89.80;;;;;;4972543;28;20474;-88
2022/10/03 09:09:24;;;;;;;16.80;8.03;;;13.50;89.80;;;;;;4969618;28;20487;-88
2022/10/03 09:12:19;;;;;;;11.63;6.73;;;13.50;89.80;;;;;;4954045;28;20489;-88
2022/10/03 09:15:14;;;;;;;11.37;6.43;;;13.50;89.80;;;;;;4953264;28;20470;-88
2022/10/03 09:17:56;;;;;;;11.93;8.00;;;13.50;89.80;;;;;;4915994;28;20521;-88
2022/10/03 09:20:34;;;;;;;14.47;7.80;;;13.60;89.80;;;;;;4969553;28;20811;-88
2022/10/03 09:23:16;;;;;;;12.77;8.00;;;13.60;89.60;;;;;;4950369;28;20556;-88
2022/10/03 09:26:14;;;;;;;9.20;6.57;;;13.70;89.20;;;;;;4952326;28;20466;-88
2022/10/03 09:28:58;;;;;;;13.50;7.57;;;13.80;88.80;;;;;;4968940;28;20572;-88
2022/10/03 09:31:45;;;;;;;13.70;7.03;;;13.80;88.80;;;;;;4954763;28;20458;-89
2022/10/03 09:34:54;;;;;;;10.53;7.23;;;13.80;88.40;;;;;;4949239;28;20634;-88
2022/10/03 09:37:32;;;;;;;11.17;7.67;;;13.80;88.40;;;;;;4941871;28;20512;-88
2022/10/03 09:40:28;;;;;;;17.47;7.67;;;13.80;88.20;;;;;;4953153;28;20498;-88
2022/10/03 09:43:10;;;;;;;11.93;7.73;;;13.90;88.10;;;;;;4901841;28;20956;-89
2022/10/03 09:46:04;;;;;;;9.90;6.97;;;13.90;88.00;;;;;;4970827;28;20466;-88
2022/10/03 09:48:37;;;;;;;14.90;7.43;;;13.90;87.90;;;;;;4956330;28;20574;-88
2022/10/03 09:51:10;;;;;;;11.70;7.33;;;13.90;87.90;;;;;;4972320;28;20466;-88
2022/10/03 09:53:58;;;;;;;16.43;6.67;;;14.00;86.80;;;;;;4957604;28;20962;-88
2022/10/03 09:56:25;;;;;;;11.97;6.87;;;14.00;86.30;;;;;;4956670;28;20454;-88
2022/10/03 09:58:57;;;;;;;11.83;6.40;;;14.00;86.50;;;;;;4949970;28;20493;-88
2022/10/03 10:01:33;;;;;;;10.00;7.20;;;14.00;86.60;;;;;;4953653;28;20506;-88
2022/10/03 10:04:15;;;;;;;9.60;6.53;;;14.10;86.60;;;;;;4967086;28;20473;-88
2022/10/03 10:07:33;;;;;;;10.20;5.80;;;14.10;86.60;;;;;;4973686;28;20553;-88
2022/10/03 10:10:38;;;;;;;9.33;6.47;;;14.10;86.50;;;;;;4953546;28;20468;-88
2022/10/03 10:13:11;;;;;;;13.20;6.87;;;14.20;86.50;;;;;;4950543;28;20489;-88
2022/10/03 10:16:12;;;;;;;12.70;6.10;;;14.20;86.40;;;;;;4953835;28;20458;-88
2022/10/03 10:19:21;;;;;;;12.27;6.77;;;14.20;86.30;;;;;;4950199;28;20512;-88
2022/10/03 10:22:29;;;;;;;14.23;8.00;;;14.30;86.20;;;;;;4955656;28;20478;-88
2022/10/03 10:25:04;;;;;;;11.40;6.70;;;14.30;86.10;;;;;;4940483;28;20528;-88
2022/10/03 10:27:31;;;;;;;9.13;6.90;;;14.30;86.10;;;;;;4949517;28;20524;-88
2022/10/03 10:30:18;;;;;;;11.27;6.40;;;14.30;86.10;;;;;;4953217;28;20482;-88
2022/10/03 10:33:23;;;;;;;10.63;6.80;;;14.30;86.00;;;;;;4970132;28;20516;-89
2022/10/03 10:36:32;;;;;;;10.33;6.00;;;14.30;85.70;;;;;;4933058;28;20525;-89
2022/10/03 10:39:14;;;;;;;10.53;6.77;;;14.30;85.50;;;;;;4954812;28;20465;-88
2022/10/03 10:42:06;;;;;;;8.10;6.07;;;14.30;85.10;;;;;;4949842;28;20470;-88
2022/10/03 10:45:03;;;;;;;11.10;6.60;;;14.30;85.10;;;;;;4947802;28;20625;-88
2022/10/03 10:48:01;;;;;;;8.97;6.13;;;14.30;85.10;;;;;;4970147;28;20465;-88
2022/10/03 10:51:04;;;;;;;8.67;5.70;;;14.40;85.00;;;;;;4969613;28;20478;-88
2022/10/03 10:53:58;;;;;;;13.30;7.63;;;14.40;84.70;;;;;;4971255;28;20482;-88
2022/10/03 10:57:10;;;;;;;10.30;6.70;;;14.50;84.40;;;;;;4954225;28;20466;-88
2022/10/03 11:00:14;;;;;;;9.33;6.20;;;14.50;84.40;;;;;;4954803;28;20473;-87
2022/10/03 11:03:14;;;;;;;10.83;6.17;;;14.50;84.50;;;;;;4952975;28;21080;-88
2022/10/03 11:06:21;;;;;;;9.47;5.87;;;14.60;84.30;;;;;;4950360;28;20489;-88
2022/10/03 11:09:27;;;;;;;7.90;5.30;;;14.70;83.30;;;;;;4969646;28;20580;-89
2022/10/03 11:12:14;;;;;;;7.90;6.17;;;14.70;83.30;;;;;;4951005;28;20493;-88
2022/10/03 11:14:58;;;;;;;8.47;5.27;;;14.80;82.80;;;;;;4973497;28;20569;-88
2022/10/03 11:17:46;;;;;;;6.57;5.63;;;14.80;82.90;;;;;;4970574;28;20486;-88
2022/10/03 11:20:15;;;;;;;10.83;6.67;;;14.80;82.80;;;;;;4952063;28;20490;-88
2022/10/03 11:23:20;;;;;;;10.47;5.70;;;14.70;82.80;;;;;;4954039;28;20490;-88
2022/10/03 11:26:04;;;;;;;10.33;6.20;;;14.70;82.80;;;;;;4949425;28;20494;-88
2022/10/03 11:28:37;;;;;;;8.03;6.60;;;14.70;82.80;;;;;;4948485;28;20498;-88
2022/10/03 11:31:35;;;;;;;10.57;5.77;;;14.70;82.60;;;;;;4945471;28;20461;-88
2022/10/03 11:34:35;;;;;;;12.77;5.37;;;14.70;82.30;;;;;;4950955;28;21018;-88
2022/10/03 11:37:19;;;;;;;9.67;6.00;;;14.70;82.40;;;;;;4953004;28;20841;-88
2022/10/03 11:40:16;;;;;;;8.53;6.03;;;14.70;82.30;;;;;;4970479;28;20470;-88
2022/10/03 11:42:51;;;;;;;7.77;6.03;;;14.60;82.10;;;;;;4970243;28;20466;-88
2022/10/03 11:45:32;;;;;;;9.53;6.20;;;14.60;81.90;;;;;;4951158;28;20512;-88
2022/10/03 11:48:14;;;;;;;7.93;6.13;;;14.60;82.20;;;;;;4971101;28;20486;-88
2022/10/03 11:50:52;;;;;;;10.70;5.90;;;14.60;82.20;;;;;;4972203;28;20524;-88
2022/10/03 11:53:41;;;;;;;10.87;6.50;;;14.60;81.40;;;;;;4953945;28;20518;-88
2022/10/03 11:56:32;;;;;;;6.93;5.80;;;14.60;81.80;;;;;;4971830;28;20462;-88
2022/10/03 11:59:21;;;;;;;10.43;6.70;;;14.50;81.70;;;;;;4955437;28;20494;-89
2022/10/03 12:02:19;;;;;;;12.00;5.90;;;14.50;82.10;;;;;;4958700;28;20486;-88
2022/10/03 12:04:57;;;;;;;11.20;5.80;;;14.50;82.10;;;;;;4956397;28;20662;-88
2022/10/03 12:10:38;;;;;;;9.10;6.57;;;14.50;82.00;;;;;;4973298;28;20470;-88
2022/10/03 12:13:40;;;;;;;8.37;6.27;;;14.50;82.10;;;;;;4968753;28;20517;-87
2022/10/03 12:16:20;;;;;;;8.17;6.67;;;14.50;82.20;;;;;;4946831;28;20458;-88
2022/10/03 12:18:46;;;;;;;9.33;6.27;;;14.50;82.40;;;;;;4972516;28;20556;-88
2022/10/03 12:21:21;;;;;;;9.90;5.73;;;14.50;82.50;;;;;;4973712;28;20477;-88
2022/10/03 12:24:04;;;;;;;9.00;6.37;;;14.50;82.50;;;;;;4953387;28;20465;-88
2022/10/03 12:26:37;;;;;;;12.70;7.17;;;14.50;82.50;;;;;;4953362;28;20992;-89
2022/10/03 12:29:07;;;;;;;11.17;6.57;;;14.50;82.60;;;;;;4969983;28;20498;-88
2022/10/03 12:31:47;;;;;;;8.50;6.60;;;14.50;82.60;;;;;;4971712;28;20462;-88
2022/10/03 12:34:34;;;;;;;11.87;6.37;;;14.50;82.60;;;;;;4955625;28;20562;-89
2022/10/03 12:37:35;;;;;;;11.23;6.60;;;14.50;82.60;;;;;;4952730;28;20508;-88
2022/10/03 12:40:23;;;;;;;11.20;6.80;;;14.50;82.70;;;;;;4954628;28;20503;-88
2022/10/03 12:43:04;;;;;;;9.83;6.70;;;14.50;82.70;;;;;;4951346;28;20509;-88
2022/10/03 12:45:46;;;;;;;6.93;5.87;;;14.50;82.70;;;;;;4952165;28;20524;-88
2022/10/03 12:48:50;;;;;;;12.23;6.43;;;14.50;82.70;;;;;;4971807;28;20568;-88
2022/10/03 12:51:21;;;;;;;13.60;7.17;;;14.60;82.60;;;;;;4954157;28;20482;-88
2022/10/03 12:53:58;;;;;;;17.50;7.50;;;14.60;82.60;;;;;;4954718;28;20458;-88
2022/10/03 12:56:24;;;;;;;11.23;7.30;;;14.60;82.60;;;;;;4972354;28;20520;-88
2022/10/03 12:59:23;;;;;;;11.10;6.67;;;14.60;82.80;;;;;;4970500;28;20497;-88
2022/10/03 13:02:15;;;;;;;8.13;6.17;;;14.50;82.80;;;;;;4958254;28;20524;-88
2022/10/03 13:05:01;;;;;;;12.27;6.73;;;14.50;82.70;;;;;;4967820;28;20470;-88
2022/10/03 13:07:51;;;;;;;9.63;6.33;;;14.50;82.40;;;;;;4954200;28;20466;-88
2022/10/03 13:10:44;;;;;;;11.03;6.40;;;14.60;82.30;;;;;;4966594;28;20498;-88
2022/10/03 13:13:21;;;;;;;17.47;6.80;;;14.60;82.20;;;;;;4971335;28;20502;-88
2022/10/03 13:16:07;;;;;;;7.60;5.40;;;14.60;82.20;;;;;;4972792;28;20470;-88
2022/10/03 13:18:58;;;;;;;10.00;5.70;;;14.60;82.00;;;;;;4970874;28;20482;-88
2022/10/03 13:21:43;;;;;;;9.80;6.30;;;14.70;81.80;;;;;;4954857;28;20566;-88
2022/10/03 13:24:19;;;;;;;12.90;6.50;;;14.70;81.90;;;;;;4957899;28;20470;-88
2022/10/03 13:27:01;;;;;;;11.83;6.40;;;14.70;81.70;;;;;;4972671;28;20851;-88
2022/10/03 13:29:38;;;;;;;7.23;5.73;;;14.70;81.60;;;;;;4970431;28;20533;-88
2022/10/03 13:32:15;;;;;;;10.60;6.27;;;14.70;81.60;;;;;;4972151;28;20481;-88
2022/10/03 13:34:57;;;;;;;10.30;6.80;;;14.80;81.60;;;;;;4973670;28;20478;-88
2022/10/03 13:37:51;;;;;;;10.70;6.70;;;14.80;81.50;;;;;;4957409;28;20493;-88
2022/10/03 13:40:18;;;;;;;9.03;6.30;;;14.80;81.30;;;;;;4972677;28;20466;-88
2022/10/03 13:42:52;;;;;;;14.00;6.10;;;14.80;81.10;;;;;;4969108;28;20466;-88
2022/10/03 13:45:24;;;;;;;8.33;6.27;;;14.90;80.90;;;;;;4954746;28;20473;-88
2022/10/03 13:48:05;;;;;;;9.23;6.30;;;14.90;80.90;;;;;;4971559;28;20553;-88
2022/10/03 13:50:46;;;;;;;10.67;6.60;;;14.90;80.90;;;;;;4972797;28;20895;-88
2022/10/03 13:53:32;;;;;;;10.53;6.50;;;15.00;80.90;;;;;;4974892;28;20466;-88
2022/10/03 13:56:10;;;;;;;10.00;6.37;;;15.10;81.00;;;;;;4955689;28;20458;-88
2022/10/03 13:58:55;;;;;;;12.20;6.03;;;15.10;80.40;;;;;;4970442;28;20978;-88
2022/10/03 14:01:42;;;;;;;10.83;6.53;;;15.20;77.90;;;;;;4954480;28;20465;-88
2022/10/03 14:04:37;;;;;;;6.80;5.50;;;15.30;78.10;;;;;;4953303;28;20572;-88
2022/10/03 14:07:23;;;;;;;6.57;5.80;;;15.20;79.30;;;;;;4957119;28;20470;-88
2022/10/03 14:10:04;;;;;;;9.37;6.90;;;15.20;79.70;;;;;;4967974;28;20576;-88
2022/10/03 14:12:34;;;;;;;9.20;5.57;;;15.20;79.80;;;;;;4951929;28;20462;-88
2022/10/03 14:15:44;;;;;;;11.10;5.80;;;15.20;80.00;;;;;;4952948;28;20457;-88
2022/10/03 14:18:43;;;;;;;11.20;6.57;;;15.20;79.80;;;;;;4966582;28;20510;-88
2022/10/03 14:21:34;;;;;;;12.93;6.63;;;15.20;79.90;;;;;;4969505;28;20878;-88
2022/10/03 14:24:23;;;;;;;7.67;5.73;;;15.20;80.00;;;;;;4953579;28;20462;-88
2022/10/03 14:27:00;;;;;;;9.60;5.73;;;15.20;80.20;;;;;;4954505;28;20450;-88
2022/10/03 14:29:55;;;;;;;8.90;5.10;;;15.30;79.80;;;;;;4954960;28;20529;-88
2022/10/03 14:32:34;;;;;;;7.87;6.00;;;15.30;78.80;;;;;;4974200;28;20830;-88
2022/10/03 14:35:39;;;;;;;7.43;6.10;;;15.40;78.90;;;;;;4955902;28;20454;-88